createdAt,value
2022-08-14T00:01:11.495Z,43.25
2022-08-14T00:03:40.501Z,43.80
2022-08-14T00:06:13.863Z,43.80
2022-08-14T00:08:45.233Z,44.13
2022-08-14T00:11:12.096Z,43.81
2022-08-14T00:13:38.959Z,43.99
2022-08-14T00:16:05.703Z,44.06
2022-08-14T00:19:05.385Z,44.42
2022-08-14T00:21:22.421Z,44.37
2022-08-14T00:24:01.776Z,44.34
2022-08-14T00:26:28.934Z,44.36
2022-08-14T00:28:55.500Z,44.67
2022-08-14T00:31:43.991Z,44.24
2022-08-14T00:34:35.340Z,44.53
2022-08-14T00:36:56.037Z,44.63
2022-08-14T00:39:25.937Z,44.55
2022-08-14T00:41:53.027Z,44.69
2022-08-14T00:44:21.292Z,44.86
2022-08-14T00:46:59.660Z,45.17
2022-08-14T00:49:30.196Z,45.35
2022-08-14T00:51:57.143Z,45.44
2022-08-14T00:54:25.300Z,45.16
2022-08-14T00:56:55.478Z,45.34
2022-08-14T00:59:27.549Z,45.87
2022-08-14T01:01:59.659Z,45.78
2022-08-14T01:04:38.257Z,45.86
2022-08-14T01:07:21.452Z,46.17
2022-08-14T01:09:54.255Z,46.56
2022-08-14T01:12:26.537Z,46.54
2022-08-14T01:15:02.054Z,47.19
2022-08-14T01:17:50.675Z,47.48
2022-08-14T01:20:39.949Z,47.81
2022-08-14T01:23:16.491Z,47.80
2022-08-14T01:25:48.190Z,47.18
2022-08-14T01:28:46.162Z,47.47
2022-08-14T01:31:02.029Z,47.81
2022-08-14T01:33:30.341Z,48.13
2022-08-14T01:36:02.748Z,48.11
2022-08-14T01:38:37.094Z,48.26
2022-08-14T01:41:14.687Z,48.51
2022-08-14T01:44:02.254Z,48.51
2022-08-14T01:46:36.681Z,48.61
2022-08-14T01:49:08.160Z,48.28
2022-08-14T01:51:36.511Z,48.07
2022-08-14T01:54:09.941Z,48.84
2022-08-14T01:56:44.927Z,48.77
2022-08-14T01:59:18.646Z,48.71
2022-08-14T02:01:51.323Z,49.12
2022-08-14T02:04:54.988Z,48.93
2022-08-14T02:07:15.470Z,49.11
2022-08-14T02:09:42.822Z,48.76
2022-08-14T02:12:09.646Z,49.10
2022-08-14T02:14:59.234Z,49.41
2022-08-14T02:17:29.842Z,49.16
2022-08-14T02:19:57.591Z,49.10
2022-08-14T02:22:29.081Z,49.19
2022-08-14T02:25:00.718Z,50.02
2022-08-14T02:28:25.045Z,49.49
2022-08-14T02:30:16.538Z,49.45
2022-08-14T02:32:44.655Z,49.68
2022-08-14T02:35:18.848Z,49.81
2022-08-14T02:37:49.338Z,49.75
2022-08-14T02:40:18.602Z,50.28
2022-08-14T02:42:54.861Z,50.57
2022-08-14T02:45:33.662Z,50.14
2022-08-14T02:48:10.536Z,50.53
2022-08-14T02:50:54.426Z,50.20
2022-08-14T02:53:21.189Z,50.16
2022-08-14T02:55:47.865Z,50.14
2022-08-14T02:58:21.366Z,50.26
2022-08-14T03:00:57.340Z,50.13
2022-08-14T03:03:24.924Z,50.16
2022-08-14T03:05:54.401Z,50.54
2022-08-14T03:08:22.698Z,50.86
2022-08-14T03:10:52.142Z,50.67
2022-08-14T03:13:21.261Z,50.98
2022-08-14T03:15:55.979Z,51.29
2022-08-14T03:18:31.131Z,50.99
2022-08-14T03:21:05.466Z,51.23
2022-08-14T03:23:38.041Z,51.73
2022-08-14T03:26:08.760Z,51.62
2022-08-14T03:28:42.257Z,52.12
2022-08-14T03:31:13.078Z,51.91
2022-08-14T03:33:41.163Z,52.12
2022-08-14T03:37:28.985Z,52.89
2022-08-14T03:39:10.842Z,53.08
2022-08-14T03:41:45.279Z,52.80
2022-08-14T03:45:27.631Z,53.10
2022-08-14T03:46:58.634Z,52.82
2022-08-14T03:49:29.207Z,53.31
2022-08-14T03:51:58.188Z,53.84
2022-08-14T03:54:27.340Z,53.16
2022-08-14T03:56:54.740Z,53.60
2022-08-14T03:59:21.421Z,52.84
2022-08-14T04:01:58.238Z,52.77
2022-08-14T04:04:33.563Z,53.21
2022-08-14T04:07:00.862Z,53.50
2022-08-14T04:09:28.226Z,53.81
2022-08-14T04:11:56.241Z,53.96
2022-08-14T04:14:25.141Z,54.28
2022-08-14T04:16:51.796Z,54.13
2022-08-14T04:19:23.941Z,54.04
2022-08-14T04:22:02.149Z,54.39
2022-08-14T04:24:30.923Z,53.99
2022-08-14T04:27:04.789Z,53.76
2022-08-14T04:29:32.669Z,53.86
2022-08-14T04:32:57.834Z,53.58
2022-08-14T04:34:51.976Z,53.33
2022-08-14T04:37:43.545Z,53.91
2022-08-14T04:40:31.659Z,54.54
2022-08-14T04:43:17.601Z,54.96
2022-08-14T04:45:44.860Z,54.72
2022-08-14T04:48:39.859Z,54.85
2022-08-14T04:51:03.530Z,55.57
2022-08-14T04:53:35.543Z,55.08
2022-08-14T04:56:05.877Z,55.09
2022-08-14T04:58:37.383Z,54.86
2022-08-14T05:01:13.042Z,54.85
2022-08-14T05:03:46.358Z,54.80
2022-08-14T05:06:35.058Z,54.32
2022-08-14T05:09:00.692Z,54.30
2022-08-14T05:11:28.306Z,54.13
2022-08-14T05:14:17.182Z,53.57
2022-08-14T05:16:42.339Z,53.46
2022-08-14T05:19:18.284Z,53.46
2022-08-14T05:22:16.087Z,53.43
2022-08-14T05:24:49.699Z,53.07
2022-08-14T05:27:22.880Z,53.41
2022-08-14T05:29:52.167Z,53.54
2022-08-14T05:32:18.784Z,53.67
2022-08-14T05:34:46.950Z,53.47
2022-08-14T05:37:15.339Z,53.89
2022-08-14T05:39:43.405Z,53.58
2022-08-14T05:42:21.599Z,52.98
2022-08-14T05:44:55.469Z,52.88
2022-08-14T05:47:22.948Z,52.76
2022-08-14T05:49:50.181Z,52.66
2022-08-14T05:52:18.386Z,52.69
2022-08-14T05:54:45.048Z,52.43
2022-08-14T05:57:11.634Z,52.05
2022-08-14T05:59:39.923Z,51.90
2022-08-14T06:02:10.201Z,52.17
2022-08-14T06:04:38.171Z,52.04
2022-08-14T06:07:05.007Z,51.75
2022-08-14T06:09:35.469Z,51.83
2022-08-14T06:12:09.997Z,51.51
2022-08-14T06:14:37.789Z,51.77
2022-08-14T06:17:05.713Z,51.47
2022-08-14T06:19:32.499Z,51.23
2022-08-14T06:21:59.738Z,51.28
2022-08-14T06:24:30.443Z,51.17
2022-08-14T06:27:03.918Z,51.67
2022-08-14T06:29:34.778Z,51.89
2022-08-14T06:32:37.388Z,51.62
2022-08-14T06:35:03.559Z,51.33
2022-08-14T06:38:07.883Z,52.11
2022-08-14T06:40:40.342Z,51.66
2022-08-14T06:43:11.626Z,52.19
2022-08-14T06:45:43.698Z,52.16
2022-08-14T06:48:21.632Z,51.60
2022-08-14T06:50:49.392Z,51.85
2022-08-14T06:53:16.547Z,52.17
2022-08-14T06:55:58.049Z,50.66
2022-08-14T06:58:29.521Z,50.87
2022-08-14T07:01:20.369Z,50.39
2022-08-14T07:04:12.844Z,50.75
2022-08-14T07:06:49.847Z,50.21
2022-08-14T07:09:22.597Z,50.29
2022-08-14T07:11:50.861Z,50.57
2022-08-14T07:14:17.767Z,50.06
2022-08-14T07:16:44.482Z,49.45
2022-08-14T07:19:11.613Z,49.75
2022-08-14T07:21:39.698Z,49.54
2022-08-14T07:24:09.533Z,49.61
2022-08-14T07:26:48.485Z,49.22
2022-08-14T07:29:15.140Z,49.26
2022-08-14T07:31:44.143Z,49.04
2022-08-14T07:34:11.410Z,49.32
2022-08-14T07:36:38.624Z,49.20
2022-08-14T07:39:27.754Z,48.67
2022-08-14T07:41:54.725Z,49.00
2022-08-14T07:44:29.077Z,48.95
2022-08-14T07:47:00.147Z,48.71
2022-08-14T07:49:28.900Z,48.73
2022-08-14T07:51:56.893Z,48.50
2022-08-14T07:54:30.559Z,48.43
2022-08-14T07:56:59.854Z,48.63
2022-08-14T07:59:42.715Z,48.42
2022-08-14T08:02:18.480Z,47.72
2022-08-14T08:04:52.947Z,47.67
2022-08-14T08:07:22.725Z,48.04
2022-08-14T08:09:53.552Z,47.76
2022-08-14T08:12:26.128Z,47.52
2022-08-14T08:15:02.654Z,47.55
2022-08-14T08:17:34.956Z,47.57
2022-08-14T08:20:08.992Z,47.15
2022-08-14T08:22:38.861Z,47.21
2022-08-14T08:25:11.355Z,46.71
2022-08-14T08:27:44.574Z,46.83
2022-08-14T08:30:12.481Z,47.26
2022-08-14T08:32:43.929Z,46.61
2022-08-14T08:35:17.639Z,46.31
2022-08-14T08:37:45.181Z,46.20
2022-08-14T08:40:31.042Z,46.13
2022-08-14T08:42:59.192Z,45.80
2022-08-14T08:45:27.781Z,45.79
2022-08-14T08:47:55.391Z,45.90
2022-08-14T08:53:08.636Z,45.29
2022-08-14T08:55:44.410Z,45.47
2022-08-14T08:58:16.540Z,45.02
2022-08-14T09:00:49.862Z,45.31
2022-08-14T09:03:27.469Z,44.35
2022-08-14T09:06:01.393Z,44.49
2022-08-14T09:08:34.306Z,44.41
2022-08-14T09:11:19.277Z,44.80
2022-08-14T09:13:50.593Z,44.51
2022-08-14T09:16:25.831Z,44.32
2022-08-14T09:18:53.927Z,44.32
2022-08-14T09:21:24.128Z,43.60
2022-08-14T09:24:28.949Z,43.82
2022-08-14T09:26:42.119Z,43.14
2022-08-14T09:29:11.105Z,42.78
2022-08-14T09:31:52.871Z,42.66
2022-08-14T09:34:29.989Z,42.64
2022-08-14T09:37:05.771Z,42.22
2022-08-14T09:40:03.720Z,42.77
2022-08-14T09:42:50.163Z,40.91
2022-08-14T09:45:19.967Z,41.17
2022-08-14T09:47:51.902Z,41.46
2022-08-14T09:50:26.926Z,40.70
2022-08-14T09:53:04.948Z,40.23
2022-08-14T09:55:42.336Z,38.94
2022-08-14T09:58:19.602Z,39.40
2022-08-14T10:01:01.966Z,37.50
2022-08-14T10:03:40.511Z,38.07
2022-08-14T10:06:19.377Z,38.76
2022-08-14T10:09:05.008Z,39.05
2022-08-14T10:11:43.289Z,39.41
2022-08-14T10:14:29.351Z,39.17
2022-08-14T10:17:05.394Z,38.75
2022-08-14T10:19:36.477Z,38.40
2022-08-14T10:23:12.881Z,38.70
2022-08-14T10:24:56.264Z,38.67
2022-08-14T10:27:26.608Z,38.73
2022-08-14T10:30:01.262Z,38.33
2022-08-14T10:32:40.369Z,38.22
2022-08-14T10:35:17.225Z,37.65
2022-08-14T10:37:49.654Z,37.64
2022-08-14T10:40:38.108Z,37.84
2022-08-14T10:43:17.982Z,37.86
2022-08-14T10:46:21.669Z,37.53
2022-08-14T10:49:05.223Z,37.46
2022-08-14T10:51:41.882Z,37.09
2022-08-14T10:54:16.956Z,37.75
2022-08-14T10:57:11.883Z,37.17
2022-08-14T10:59:55.672Z,37.13
2022-08-14T11:02:35.789Z,37.80
2022-08-14T11:05:18.655Z,37.54
2022-08-14T11:07:56.491Z,37.16
2022-08-14T11:10:28.025Z,36.98
2022-08-14T11:12:57.809Z,37.57
2022-08-14T11:15:27.904Z,37.14
2022-08-14T11:17:56.498Z,37.05
2022-08-14T11:20:31.030Z,37.05
2022-08-14T11:23:00.942Z,36.98
2022-08-14T11:25:43.966Z,37.26
2022-08-14T11:28:47.277Z,36.72
2022-08-14T11:31:14.163Z,36.12
2022-08-14T11:33:41.704Z,36.05
2022-08-14T11:36:17.795Z,36.83
2022-08-14T11:38:46.888Z,37.20
2022-08-14T11:41:18.599Z,36.52
2022-08-14T11:43:57.716Z,36.73
2022-08-14T11:46:29.591Z,36.15
2022-08-14T11:49:02.293Z,36.44
2022-08-14T11:51:42.929Z,39.21
2022-08-14T11:54:19.583Z,37.07
2022-08-14T11:56:50.633Z,36.81
2022-08-14T11:59:20.152Z,37.02
2022-08-14T12:01:53.200Z,36.72
2022-08-14T12:04:32.836Z,36.86
2022-08-14T12:07:01.399Z,36.48
2022-08-14T12:09:42.989Z,36.86
2022-08-14T12:12:35.874Z,36.86
2022-08-14T12:15:05.475Z,36.32
2022-08-14T12:17:50.714Z,36.41
2022-08-14T12:20:32.105Z,36.41
2022-08-14T12:23:02.733Z,35.94
2022-08-14T12:25:34.781Z,36.04
2022-08-14T12:28:10.384Z,35.34
2022-08-14T12:30:56.572Z,35.59
2022-08-14T12:33:31.246Z,35.06
2022-08-14T12:36:08.469Z,35.90
2022-08-14T12:38:44.909Z,35.27
2022-08-14T12:41:22.094Z,35.60
2022-08-14T12:43:59.516Z,35.35
2022-08-14T12:46:27.178Z,35.36
2022-08-14T12:48:56.481Z,35.14
2022-08-14T12:51:27.236Z,34.48
2022-08-14T12:53:59.175Z,33.54
2022-08-14T12:56:33.341Z,34.10
2022-08-14T12:59:01.894Z,33.71
2022-08-14T13:01:31.505Z,34.25
2022-08-14T13:04:18.916Z,34.52
2022-08-14T13:06:50.907Z,33.92
2022-08-14T13:09:19.178Z,34.08
2022-08-14T13:11:59.120Z,33.99
2022-08-14T13:14:41.241Z,34.32
2022-08-14T13:17:11.240Z,33.82
2022-08-14T13:19:40.666Z,33.33
2022-08-14T13:22:10.056Z,33.06
2022-08-14T13:24:39.494Z,32.72
2022-08-14T13:27:09.998Z,32.30
2022-08-14T13:29:46.841Z,32.97
2022-08-14T13:32:14.968Z,32.90
2022-08-14T13:34:45.360Z,33.28
2022-08-14T13:37:15.103Z,32.95
2022-08-14T13:39:56.812Z,32.48
2022-08-14T13:42:30.838Z,32.28
2022-08-14T13:45:03.660Z,31.64
2022-08-14T13:47:33.413Z,31.51
2022-08-14T13:50:06.900Z,31.90
2022-08-14T13:52:59.204Z,31.08
2022-08-14T13:55:28.811Z,31.72
2022-08-14T13:58:04.091Z,31.76
2022-08-14T14:00:53.370Z,31.41
2022-08-14T14:03:24.435Z,30.75
2022-08-14T14:05:54.506Z,29.81
2022-08-14T14:08:45.733Z,29.27
2022-08-14T14:11:11.097Z,28.88
2022-08-14T14:13:44.804Z,28.66
2022-08-14T14:16:15.469Z,28.41
2022-08-14T14:19:06.847Z,28.28
2022-08-14T14:21:37.528Z,28.13
2022-08-14T14:24:05.563Z,28.35
2022-08-14T14:26:33.112Z,28.85
2022-08-14T14:29:01.785Z,29.61
2022-08-14T14:31:31.156Z,30.19
2022-08-14T14:34:07.342Z,30.69
2022-08-14T14:36:43.587Z,30.82
2022-08-14T14:39:10.788Z,31.17
2022-08-14T14:41:44.029Z,31.00
2022-08-14T14:44:13.569Z,31.87
2022-08-14T14:46:44.974Z,31.64
2022-08-14T14:49:14.817Z,31.74
2022-08-14T14:51:46.923Z,31.32
2022-08-14T14:54:31.992Z,31.28
2022-08-14T14:57:04.963Z,30.88
2022-08-14T14:59:37.436Z,31.72
2022-08-14T15:02:07.700Z,32.19
2022-08-14T15:04:37.872Z,31.78
2022-08-14T15:07:06.241Z,31.94
2022-08-14T15:09:34.578Z,31.73
2022-08-14T15:12:02.642Z,32.34
2022-08-14T15:14:55.057Z,32.84
2022-08-14T15:17:25.279Z,32.44
2022-08-14T15:19:56.715Z,32.03
2022-08-14T15:22:25.166Z,32.32
2022-08-14T15:24:52.140Z,32.24
2022-08-14T15:27:26.187Z,32.34
2022-08-14T15:29:53.065Z,32.81
2022-08-14T15:32:22.990Z,32.69
2022-08-14T15:34:52.558Z,33.37
2022-08-14T15:37:22.978Z,33.42
2022-08-14T15:39:52.409Z,32.99
2022-08-14T15:42:23.125Z,33.24
2022-08-14T15:44:58.355Z,33.82
2022-08-14T15:47:32.242Z,34.30
2022-08-14T15:50:01.531Z,34.17
2022-08-14T15:52:33.149Z,33.96
2022-08-14T15:55:09.195Z,33.56
2022-08-14T15:57:39.391Z,35.59
2022-08-14T16:00:49.381Z,38.30
2022-08-14T16:03:24.914Z,34.81
2022-08-14T16:05:53.771Z,35.19
2022-08-14T16:08:29.111Z,34.90
2022-08-14T16:11:01.974Z,34.34
2022-08-14T16:13:41.952Z,34.59
2022-08-14T16:16:48.143Z,34.33
2022-08-14T16:19:07.372Z,34.24
2022-08-14T16:21:40.244Z,33.79
2022-08-14T16:24:27.755Z,33.56
2022-08-14T16:27:00.325Z,33.84
2022-08-14T16:29:29.182Z,33.99
2022-08-14T16:31:58.127Z,34.28
2022-08-14T16:34:43.968Z,33.54
2022-08-14T16:37:12.885Z,33.62
2022-08-14T16:42:10.533Z,33.75
2022-08-14T16:45:01.094Z,33.62
2022-08-14T16:47:35.251Z,33.91
2022-08-14T16:50:08.343Z,34.41
2022-08-14T16:52:54.620Z,34.36
2022-08-14T16:55:22.582Z,33.73
2022-08-14T16:57:58.405Z,34.11
2022-08-14T17:00:43.225Z,34.42
2022-08-14T17:03:12.167Z,35.30
2022-08-14T17:05:46.688Z,35.18
2022-08-14T17:08:41.480Z,33.99
2022-08-14T17:11:10.581Z,33.82
2022-08-14T17:13:58.298Z,34.39
2022-08-14T17:16:35.512Z,34.54
2022-08-14T17:19:04.884Z,34.66
2022-08-14T17:21:37.578Z,34.07
2022-08-14T17:24:56.261Z,34.07
2022-08-14T17:26:55.108Z,34.23
2022-08-14T17:32:21.918Z,34.10
2022-08-14T17:34:55.312Z,34.37
2022-08-14T17:37:34.011Z,34.11
2022-08-14T17:40:15.994Z,35.23
2022-08-14T17:42:51.305Z,34.25
2022-08-14T17:45:26.619Z,34.00
2022-08-14T17:47:56.365Z,34.25
2022-08-14T17:51:00.531Z,33.63
2022-08-14T17:53:30.453Z,33.65
2022-08-14T17:56:01.326Z,34.13
2022-08-14T17:58:38.458Z,34.09
2022-08-14T18:01:13.628Z,34.26
2022-08-14T18:03:51.001Z,33.96
2022-08-14T18:06:40.063Z,34.11
2022-08-14T18:09:25.497Z,34.44
2022-08-14T18:11:58.684Z,34.76
2022-08-14T18:14:32.543Z,36.14
2022-08-14T18:17:02.203Z,36.38
2022-08-14T18:19:30.565Z,37.11
2022-08-14T18:21:59.722Z,37.64
2022-08-14T18:24:30.253Z,37.56
2022-08-14T18:27:22.893Z,37.28
2022-08-14T18:29:55.926Z,37.24
2022-08-14T18:32:31.964Z,37.32
2022-08-14T18:35:11.124Z,37.14
2022-08-14T18:37:40.462Z,37.13
2022-08-14T18:40:17.678Z,36.54
2022-08-14T18:42:49.764Z,37.06
2022-08-14T18:45:28.521Z,36.21
2022-08-14T18:48:33.178Z,36.52
2022-08-14T18:51:14.523Z,36.78
2022-08-14T18:53:58.331Z,36.90
2022-08-14T18:56:58.782Z,37.22
2022-08-14T18:59:35.380Z,37.50
2022-08-14T19:02:30.691Z,37.66
2022-08-14T19:05:02.671Z,37.39
2022-08-14T19:07:33.271Z,37.33
2022-08-14T19:10:06.887Z,37.63
2022-08-14T19:12:53.122Z,38.17
2022-08-14T19:15:25.798Z,38.57
2022-08-14T19:18:13.863Z,38.31
2022-08-14T19:21:01.538Z,38.73
2022-08-14T19:23:42.272Z,38.86
2022-08-14T19:26:35.496Z,38.64
2022-08-14T19:29:37.985Z,39.14
2022-08-14T19:32:37.024Z,39.09
2022-08-14T19:35:18.457Z,39.23
2022-08-14T19:37:54.939Z,39.78
2022-08-14T19:40:29.591Z,39.90
2022-08-14T19:42:59.205Z,40.33
2022-08-14T19:45:27.820Z,40.13
2022-08-14T19:47:54.521Z,40.04
2022-08-14T19:50:38.269Z,40.63
2022-08-14T19:53:11.610Z,40.00
2022-08-14T19:55:45.700Z,40.32
2022-08-14T19:58:13.744Z,40.59
2022-08-14T20:00:52.878Z,41.02
2022-08-14T20:03:23.244Z,41.28
2022-08-14T20:06:01.275Z,41.02
2022-08-14T20:10:59.683Z,40.85
2022-08-14T20:12:00.635Z,40.50
2022-08-14T20:14:20.421Z,40.27
2022-08-14T20:16:55.836Z,40.16
2022-08-14T20:19:29.129Z,40.60
2022-08-14T20:22:00.745Z,40.54
2022-08-14T20:24:45.197Z,41.11
2022-08-14T20:27:21.173Z,40.79
2022-08-14T20:30:33.028Z,40.86
2022-08-14T20:33:07.674Z,41.07
2022-08-14T20:35:43.558Z,41.48
2022-08-14T20:38:29.219Z,41.85
2022-08-14T20:40:58.680Z,41.95
2022-08-14T20:43:52.824Z,41.77
2022-08-14T20:46:31.066Z,42.08
2022-08-14T20:49:06.693Z,42.53
2022-08-14T20:51:43.514Z,42.91
2022-08-14T20:54:34.707Z,42.99
2022-08-14T20:57:11.995Z,43.04
2022-08-14T20:59:45.429Z,43.30
2022-08-14T21:02:34.195Z,43.71
2022-08-14T21:05:16.812Z,44.58
2022-08-14T21:07:50.829Z,44.33
2022-08-14T21:10:34.066Z,44.86
2022-08-14T21:13:26.661Z,44.70
2022-08-14T21:15:57.467Z,44.31
2022-08-14T21:18:47.666Z,45.00
2022-08-14T21:21:18.619Z,45.03
2022-08-14T21:23:54.492Z,44.98
2022-08-14T21:26:52.088Z,45.84
2022-08-14T21:29:14.434Z,44.68
2022-08-14T21:31:42.257Z,44.98
2022-08-14T21:34:31.659Z,45.55
2022-08-14T21:36:55.973Z,45.74
2022-08-14T21:39:24.355Z,46.20
2022-08-14T21:41:59.022Z,46.22
2022-08-14T21:44:43.173Z,45.96
2022-08-14T21:47:12.104Z,45.92
2022-08-14T21:49:40.220Z,46.03
2022-08-14T21:52:50.352Z,46.00
2022-08-14T21:55:09.107Z,46.27
2022-08-14T21:57:56.444Z,45.95
2022-08-14T22:00:35.151Z,46.83
2022-08-14T22:03:04.635Z,46.91
2022-08-14T22:05:31.356Z,46.93
2022-08-14T22:07:58.451Z,47.04
2022-08-14T22:10:26.101Z,47.06
2022-08-14T22:13:00.551Z,47.19
2022-08-14T22:15:28.425Z,47.50
2022-08-14T22:17:55.444Z,47.65
2022-08-14T22:20:24.524Z,47.30
2022-08-14T22:22:56.248Z,48.01
2022-08-14T22:25:31.972Z,48.04
2022-08-14T22:28:03.073Z,47.94
2022-08-14T22:30:30.268Z,47.74
2022-08-14T22:33:00.014Z,47.77
2022-08-14T22:35:28.104Z,47.92
2022-08-14T22:41:05.404Z,47.82
2022-08-14T22:43:11.140Z,48.02
2022-08-14T22:45:39.016Z,47.96
2022-08-14T22:48:10.764Z,48.20
2022-08-14T22:50:49.063Z,48.29
2022-08-14T22:53:20.503Z,48.57
2022-08-14T22:55:47.695Z,48.58
2022-08-14T22:58:17.299Z,48.44
2022-08-14T23:00:45.158Z,48.84
2022-08-14T23:03:17.455Z,48.86
2022-08-14T23:05:53.040Z,48.78
2022-08-14T23:08:58.372Z,49.31
2022-08-14T23:11:10.440Z,49.30
2022-08-14T23:13:43.576Z,49.31
2022-08-14T23:16:20.273Z,49.88
2022-08-14T23:18:53.451Z,49.77
2022-08-14T23:21:24.335Z,50.06
2022-08-14T23:23:55.137Z,50.46
2022-08-14T23:26:47.733Z,50.25
2022-08-14T23:29:17.886Z,51.09
2022-08-14T23:31:44.687Z,51.29
2022-08-14T23:34:20.701Z,51.93
2022-08-14T23:36:54.611Z,52.03
2022-08-14T23:39:31.006Z,51.67
2022-08-14T23:42:07.537Z,51.49
2022-08-14T23:44:37.806Z,52.31
2022-08-14T23:47:12.188Z,52.28
2022-08-14T23:50:03.660Z,51.87
2022-08-14T23:52:50.528Z,52.51
2022-08-14T23:55:29.953Z,52.16
2022-08-14T23:57:58.243Z,52.16
